Terminal Aerodrome Forecast
Issued by NWS Rapid City, SD

Home | Current Version | Previous Version | Text Only | Print | Product List | Glossary On
Versions: 1 2 3 4 5 6 7 8 9 10 11 12 13 14 15 16
000
FTUS43 KUNR 311100
TAFRAP
TAF
KRAP 311120Z 3112/0112 02007KT P6SM OVC150
     FM311500 08005KT 4SM BR OVC005
     FM311900 11011KT P6SM OVC015
     FM010000 02012KT 1SM -SN OVC007=

USA.gov is the U.S. government's official web portal to all federal, state and local government web resources and services.